sensor_id;sensor_type;location;lat;lon;timestamp;pressure;altitude;pressure_sealevel;temperature;humidity
31121;BME280;17770;45.966;13.632;2023-03-29T00:01:12;101431.53;;;16.66;55.90
31121;BME280;17770;45.966;13.632;2023-03-29T00:03:38;101442.03;;;16.64;55.77
31121;BME280;17770;45.966;13.632;2023-03-29T00:06:04;101431.66;;;16.63;55.81
31121;BME280;17770;45.966;13.632;2023-03-29T00:08:31;101429.91;;;16.63;55.81
31121;BME280;17770;45.966;13.632;2023-03-29T00:10:58;101423.84;;;16.63;55.61
31121;BME280;17770;45.966;13.632;2023-03-29T00:13:25;101431.72;;;16.61;55.74
31121;BME280;17770;45.966;13.632;2023-03-29T00:15:51;101426.56;;;16.60;55.31
31121;BME280;17770;45.966;13.632;2023-03-29T00:18:17;101432.66;;;16.60;55.79
31121;BME280;17770;45.966;13.632;2023-03-29T00:20:43;101431.78;;;16.60;55.49
31121;BME280;17770;45.966;13.632;2023-03-29T00:23:09;101434.44;;;16.58;55.77
31121;BME280;17770;45.966;13.632;2023-03-29T00:25:36;101441.41;;;16.58;55.66
31121;BME280;17770;45.966;13.632;2023-03-29T00:28:01;101440.63;;;16.56;55.28
31121;BME280;17770;45.966;13.632;2023-03-29T00:30:27;101444.06;;;16.56;55.22
31121;BME280;17770;45.966;13.632;2023-03-29T00:32:54;101442.38;;;16.55;55.38
31121;BME280;17770;45.966;13.632;2023-03-29T00:35:19;101438.06;;;16.54;55.76
31121;BME280;17770;45.966;13.632;2023-03-29T00:37:45;101435.44;;;16.54;55.51
31121;BME280;17770;45.966;13.632;2023-03-29T00:40:15;101429.41;;;16.54;55.85
31121;BME280;17770;45.966;13.632;2023-03-29T00:42:42;101421.66;;;16.52;55.08
31121;BME280;17770;45.966;13.632;2023-03-29T00:47:45;101427.81;;;16.50;55.56
31121;BME280;17770;45.966;13.632;2023-03-29T00:52:41;101427.94;;;16.47;55.52
31121;BME280;17770;45.966;13.632;2023-03-29T00:55:10;101428.84;;;16.46;55.06
31121;BME280;17770;45.966;13.632;2023-03-29T00:57:38;101434.88;;;16.46;55.21
31121;BME280;17770;45.966;13.632;2023-03-29T01:00:05;101426.25;;;16.46;55.26
31121;BME280;17770;45.966;13.632;2023-03-29T01:02:34;101423.69;;;16.43;55.03
31121;BME280;17770;45.966;13.632;2023-03-29T01:05:08;101425.47;;;16.42;55.01
31121;BME280;17770;45.966;13.632;2023-03-29T01:07:40;101431.56;;;16.41;55.24
31121;BME280;17770;45.966;13.632;2023-03-29T01:10:09;101426.34;;;16.41;55.33
31121;BME280;17770;45.966;13.632;2023-03-29T01:12:42;101419.41;;;16.42;55.28
31121;BME280;17770;45.966;13.632;2023-03-29T01:15:11;101415.13;;;16.41;55.52
31121;BME280;17770;45.966;13.632;2023-03-29T01:17:38;101412.50;;;16.41;55.12
31121;BME280;17770;45.966;13.632;2023-03-29T01:22:49;101410.84;;;16.38;55.24
31121;BME280;17770;45.966;13.632;2023-03-29T01:25:25;101407.41;;;16.38;54.94
31121;BME280;17770;45.966;13.632;2023-03-29T01:31:03;101390.94;;;16.37;54.95
31121;BME280;17770;45.966;13.632;2023-03-29T01:33:35;101382.34;;;16.35;55.37
31121;BME280;17770;45.966;13.632;2023-03-29T01:36:16;101378.88;;;16.35;55.40
31121;BME280;17770;45.966;13.632;2023-03-29T01:38:47;101381.53;;;16.33;55.34
31121;BME280;17770;45.966;13.632;2023-03-29T01:41:16;101381.53;;;16.33;55.58
31121;BME280;17770;45.966;13.632;2023-03-29T01:46:10;101388.53;;;16.31;55.32
31121;BME280;17770;45.966;13.632;2023-03-29T01:48:44;101391.16;;;16.31;54.95
31121;BME280;17770;45.966;13.632;2023-03-29T01:51:20;101386.91;;;16.29;55.09
31121;BME280;17770;45.966;13.632;2023-03-29T01:53:50;101392.97;;;16.29;55.50
31121;BME280;17770;45.966;13.632;2023-03-29T01:56:20;101390.44;;;16.28;55.07
31121;BME280;17770;45.966;13.632;2023-03-29T01:58:49;101385.22;;;16.28;55.35
31121;BME280;17770;45.966;13.632;2023-03-29T02:01:18;101376.63;;;16.26;54.88
31121;BME280;17770;45.966;13.632;2023-03-29T02:03:45;101369.69;;;16.25;54.87
31121;BME280;17770;45.966;13.632;2023-03-29T02:06:15;101372.25;;;16.26;55.16
31121;BME280;17770;45.966;13.632;2023-03-29T02:08:43;101378.44;;;16.24;54.94
31121;BME280;17770;45.966;13.632;2023-03-29T02:11:12;101381.03;;;16.24;55.18
31121;BME280;17770;45.966;13.632;2023-03-29T02:13:38;101378.44;;;16.24;55.07
31121;BME280;17770;45.966;13.632;2023-03-29T02:16:11;101368.06;;;16.22;55.36
31121;BME280;17770;45.966;13.632;2023-03-29T02:18:38;101365.47;;;16.22;55.48
31121;BME280;17770;45.966;13.632;2023-03-29T02:21:06;101362.94;;;16.21;54.77
31121;BME280;17770;45.966;13.632;2023-03-29T02:23:39;101380.28;;;16.20;54.89
31121;BME280;17770;45.966;13.632;2023-03-29T02:26:09;101384.63;;;16.20;55.47
31121;BME280;17770;45.966;13.632;2023-03-29T02:28:35;101388.16;;;16.19;54.92
31121;BME280;17770;45.966;13.632;2023-03-29T02:31:12;101392.50;;;16.18;55.31
31121;BME280;17770;45.966;13.632;2023-03-29T02:33:49;101383.00;;;16.17;55.03
31121;BME280;17770;45.966;13.632;2023-03-29T02:36:22;101378.72;;;16.16;54.88
31121;BME280;17770;45.966;13.632;2023-03-29T02:38:52;101382.22;;;16.15;55.43
31121;BME280;17770;45.966;13.632;2023-03-29T02:41:17;101364.00;;;16.15;55.16
31121;BME280;17770;45.966;13.632;2023-03-29T02:43:44;101359.69;;;16.14;55.39
31121;BME280;17770;45.966;13.632;2023-03-29T02:46:11;101370.09;;;16.14;54.94
31121;BME280;17770;45.966;13.632;2023-03-29T02:48:37;101371.06;;;16.12;55.42
31121;BME280;17770;45.966;13.632;2023-03-29T02:51:07;101361.50;;;16.12;55.47
31121;BME280;17770;45.966;13.632;2023-03-29T02:53:38;101361.50;;;16.12;55.23
31121;BME280;17770;45.966;13.632;2023-03-29T02:56:05;101366.72;;;16.12;55.20
31121;BME280;17770;45.966;13.632;2023-03-29T02:58:31;101352.00;;;16.11;54.91
31121;BME280;17770;45.966;13.632;2023-03-29T03:00:57;101343.41;;;16.09;55.23
31121;BME280;17770;45.966;13.632;2023-03-29T03:03:25;101336.47;;;16.08;55.05
31121;BME280;17770;45.966;13.632;2023-03-29T03:05:52;101352.16;;;16.07;55.25
31121;BME280;17770;45.966;13.632;2023-03-29T03:08:18;101361.69;;;16.08;55.44
31121;BME280;17770;45.966;13.632;2023-03-29T03:10:45;101374.75;;;16.06;55.04
31121;BME280;17770;45.966;13.632;2023-03-29T03:13:12;101375.50;;;16.08;55.36
31121;BME280;17770;45.966;13.632;2023-03-29T03:15:39;101385.16;;;16.06;55.45
31121;BME280;17770;45.966;13.632;2023-03-29T03:18:07;101366.94;;;16.06;55.21
31121;BME280;17770;45.966;13.632;2023-03-29T03:20:34;101364.41;;;16.05;55.38
31121;BME280;17770;45.966;13.632;2023-03-29T03:23:00;101368.75;;;16.04;55.46
31121;BME280;17770;45.966;13.632;2023-03-29T03:25:28;101350.53;;;16.04;55.35
31121;BME280;17770;45.966;13.632;2023-03-29T03:27:54;101344.47;;;16.04;55.19
31121;BME280;17770;45.966;13.632;2023-03-29T03:30:23;101358.34;;;16.04;55.29
31121;BME280;17770;45.966;13.632;2023-03-29T03:33:08;101355.78;;;16.03;55.24
31121;BME280;17770;45.966;13.632;2023-03-29T03:36:03;101348.88;;;16.02;55.46
31121;BME280;17770;45.966;13.632;2023-03-29T03:38:33;101337.63;;;16.01;55.30
31121;BME280;17770;45.966;13.632;2023-03-29T03:41:00;101331.56;;;16.01;55.08
31121;BME280;17770;45.966;13.632;2023-03-29T03:43:28;101332.50;;;15.98;54.82
31121;BME280;17770;45.966;13.632;2023-03-29T03:45:55;101333.38;;;15.99;55.21
31121;BME280;17770;45.966;13.632;2023-03-29T03:48:23;101342.91;;;16.00;55.46
31121;BME280;17770;45.966;13.632;2023-03-29T03:51:08;101351.59;;;15.99;55.53
31121;BME280;17770;45.966;13.632;2023-03-29T03:53:35;101350.72;;;15.98;55.40
31121;BME280;17770;45.966;13.632;2023-03-29T03:56:13;101345.53;;;15.98;54.88
31121;BME280;17770;45.966;13.632;2023-03-29T03:58:59;101334.28;;;15.98;55.27
31121;BME280;17770;45.966;13.632;2023-03-29T04:01:27;101320.41;;;15.97;55.34
31121;BME280;17770;45.966;13.632;2023-03-29T04:04:02;101315.22;;;15.97;55.24
31121;BME280;17770;45.966;13.632;2023-03-29T04:06:29;101313.53;;;15.96;54.96
31121;BME280;17770;45.966;13.632;2023-03-29T04:09:14;101306.59;;;15.95;55.32
31121;BME280;17770;45.966;13.632;2023-03-29T04:11:45;101304.94;;;15.94;54.71
31121;BME280;17770;45.966;13.632;2023-03-29T04:14:12;101310.06;;;15.96;55.17
31121;BME280;17770;45.966;13.632;2023-03-29T04:16:58;101313.59;;;15.95;55.11
31121;BME280;17770;45.966;13.632;2023-03-29T04:19:57;101328.34;;;15.94;55.25
31121;BME280;17770;45.966;13.632;2023-03-29T04:22:24;101337.00;;;15.95;55.39
31121;BME280;17770;45.966;13.632;2023-03-29T04:24:50;101343.16;;;15.92;54.81
31121;BME280;17770;45.966;13.632;2023-03-29T04:27:37;101334.47;;;15.92;55.13
31121;BME280;17770;45.966;13.632;2023-03-29T04:30:09;101339.75;;;15.90;55.21
31121;BME280;17770;45.966;13.632;2023-03-29T04:32:58;101324.13;;;15.90;55.14
31121;BME280;17770;45.966;13.632;2023-03-29T04:35:24;101312.91;;;15.90;54.66
31121;BME280;17770;45.966;13.632;2023-03-29T04:37:50;101308.59;;;15.89;54.83
31121;BME280;17770;45.966;13.632;2023-03-29T04:40:20;101318.09;;;15.90;55.04
31121;BME280;17770;45.966;13.632;2023-03-29T04:42:56;101324.19;;;15.89;54.97
31121;BME280;17770;45.966;13.632;2023-03-29T04:45:22;101324.25;;;15.87;55.23
31121;BME280;17770;45.966;13.632;2023-03-29T04:48:05;101321.66;;;15.87;54.85
31121;BME280;17770;45.966;13.632;2023-03-29T04:50:36;101321.66;;;15.87;54.71
31121;BME280;17770;45.966;13.632;2023-03-29T04:53:02;101315.66;;;15.85;55.35
31121;BME280;17770;45.966;13.632;2023-03-29T04:55:28;101304.41;;;15.85;54.78
31121;BME280;17770;45.966;13.632;2023-03-29T04:58:03;101313.97;;;15.84;54.65
31121;BME280;17770;45.966;13.632;2023-03-29T05:00:33;101313.09;;;15.84;55.11
31121;BME280;17770;45.966;13.632;2023-03-29T05:02:59;101319.16;;;15.84;54.72
31121;BME280;17770;45.966;13.632;2023-03-29T05:05:27;101321.75;;;15.84;54.86
31121;BME280;17770;45.966;13.632;2023-03-29T05:07:55;101320.09;;;15.83;54.52
31121;BME280;17770;45.966;13.632;2023-03-29T05:10:26;101328.81;;;15.81;54.98
31121;BME280;17770;45.966;13.632;2023-03-29T05:12:53;101337.44;;;15.83;55.07
31121;BME280;17770;45.966;13.632;2023-03-29T05:15:20;101337.50;;;15.81;54.80
31121;BME280;17770;45.966;13.632;2023-03-29T05:17:48;101340.03;;;15.83;55.22
31121;BME280;17770;45.966;13.632;2023-03-29T05:20:15;101343.53;;;15.82;54.88
31121;BME280;17770;45.966;13.632;2023-03-29T05:22:44;101347.84;;;15.83;55.22
31121;BME280;17770;45.966;13.632;2023-03-29T05:25:17;101362.59;;;15.82;54.99
31121;BME280;17770;45.966;13.632;2023-03-29T05:27:43;101355.69;;;15.81;54.69
31121;BME280;17770;45.966;13.632;2023-03-29T05:30:11;101346.16;;;15.82;54.81
31121;BME280;17770;45.966;13.632;2023-03-29T05:33:04;101338.38;;;15.80;55.07
31121;BME280;17770;45.966;13.632;2023-03-29T05:35:31;101340.19;;;15.78;55.19
31121;BME280;17770;45.966;13.632;2023-03-29T05:37:59;101341.94;;;15.78;54.86
31121;BME280;17770;45.966;13.632;2023-03-29T05:40:25;101337.66;;;15.77;54.93
31121;BME280;17770;45.966;13.632;2023-03-29T05:43:09;101338.47;;;15.77;55.16
31121;BME280;17770;45.966;13.632;2023-03-29T05:45:35;101331.59;;;15.76;55.20
31121;BME280;17770;45.966;13.632;2023-03-29T05:48:01;101339.41;;;15.76;55.09
31121;BME280;17770;45.966;13.632;2023-03-29T05:50:28;101333.34;;;15.76;54.95
31121;BME280;17770;45.966;13.632;2023-03-29T05:52:55;101335.88;;;15.77;54.61
31121;BME280;17770;45.966;13.632;2023-03-29T05:55:22;101329.84;;;15.77;55.00
31121;BME280;17770;45.966;13.632;2023-03-29T05:57:48;101330.75;;;15.76;54.92
31121;BME280;17770;45.966;13.632;2023-03-29T06:00:15;101335.94;;;15.76;54.34
31121;BME280;17770;45.966;13.632;2023-03-29T06:02:45;101330.75;;;15.76;54.73
31121;BME280;17770;45.966;13.632;2023-03-29T06:05:12;101335.06;;;15.77;54.36
31121;BME280;17770;45.966;13.632;2023-03-29T06:07:53;101331.66;;;15.75;54.92
31121;BME280;17770;45.966;13.632;2023-03-29T06:10:57;101317.84;;;15.73;54.72
31121;BME280;17770;45.966;13.632;2023-03-29T06:13:46;101310.00;;;15.74;54.56
31121;BME280;17770;45.966;13.632;2023-03-29T06:16:12;101308.34;;;15.72;54.99
31121;BME280;17770;45.966;13.632;2023-03-29T06:18:38;101308.34;;;15.72;54.57
31121;BME280;17770;45.966;13.632;2023-03-29T06:21:05;101300.50;;;15.73;54.53
31121;BME280;17770;45.966;13.632;2023-03-29T06:23:33;101291.84;;;15.73;54.82
31121;BME280;17770;45.966;13.632;2023-03-29T06:26:00;101293.59;;;15.72;54.50
31121;BME280;17770;45.966;13.632;2023-03-29T06:28:26;101296.25;;;15.71;54.64
31121;BME280;17770;45.966;13.632;2023-03-29T06:30:53;101291.91;;;15.71;54.53
31121;BME280;17770;45.966;13.632;2023-03-29T06:33:23;101302.31;;;15.71;54.63
31121;BME280;17770;45.966;13.632;2023-03-29T06:36:10;101294.50;;;15.71;54.87
31121;BME280;17770;45.966;13.632;2023-03-29T06:38:36;101304.03;;;15.71;54.77
31121;BME280;17770;45.966;13.632;2023-03-29T06:41:37;101309.31;;;15.69;54.89
31121;BME280;17770;45.966;13.632;2023-03-29T06:44:06;101316.19;;;15.70;54.51
31121;BME280;17770;45.966;13.632;2023-03-29T06:46:48;101325.75;;;15.70;54.39
31121;BME280;17770;45.966;13.632;2023-03-29T06:49:14;101317.03;;;15.71;54.80
31121;BME280;17770;45.966;13.632;2023-03-29T06:52:00;101324.03;;;15.68;54.89
31121;BME280;17770;45.966;13.632;2023-03-29T06:54:26;101331.84;;;15.68;54.52
31121;BME280;17770;45.966;13.632;2023-03-29T06:56:59;101326.59;;;15.70;54.37
31121;BME280;17770;45.966;13.632;2023-03-29T06:59:27;101322.31;;;15.69;54.52
31121;BME280;17770;45.966;13.632;2023-03-29T07:02:22;101328.41;;;15.68;54.40
31121;BME280;17770;45.966;13.632;2023-03-29T07:04:59;101337.97;;;15.68;54.82
31121;BME280;17770;45.966;13.632;2023-03-29T07:07:33;101339.66;;;15.68;54.79
31121;BME280;17770;45.966;13.632;2023-03-29T07:10:29;101339.66;;;15.68;54.56
31121;BME280;17770;45.966;13.632;2023-03-29T07:13:29;101337.03;;;15.68;54.46
31121;BME280;17770;45.966;13.632;2023-03-29T07:15:59;101341.41;;;15.68;54.63
31121;BME280;17770;45.966;13.632;2023-03-29T07:18:41;101337.97;;;15.68;54.71
31121;BME280;17770;45.966;13.632;2023-03-29T07:21:10;101345.75;;;15.68;54.42
31121;BME280;17770;45.966;13.632;2023-03-29T07:23:37;101348.31;;;15.69;54.38
31121;BME280;17770;45.966;13.632;2023-03-29T07:26:04;101350.91;;;15.69;54.50
31121;BME280;17770;45.966;13.632;2023-03-29T07:28:32;101344.84;;;15.68;54.62
31121;BME280;17770;45.966;13.632;2023-03-29T07:31:06;101349.16;;;15.70;54.19
31121;BME280;17770;45.966;13.632;2023-03-29T07:33:36;101342.25;;;15.68;54.56
31121;BME280;17770;45.966;13.632;2023-03-29T07:36:04;101350.06;;;15.68;54.11
31121;BME280;17770;45.966;13.632;2023-03-29T07:38:31;101348.38;;;15.68;54.05
31121;BME280;17770;45.966;13.632;2023-03-29T07:41:11;101351.81;;;15.68;54.51
31121;BME280;17770;45.966;13.632;2023-03-29T07:44:00;101349.22;;;15.68;54.55
31121;BME280;17770;45.966;13.632;2023-03-29T07:46:34;101344.03;;;15.68;53.94
31121;BME280;17770;45.966;13.632;2023-03-29T07:49:01;101334.44;;;15.68;54.43
31121;BME280;17770;45.966;13.632;2023-03-29T07:51:27;101326.59;;;15.70;54.01
31121;BME280;17770;45.966;13.632;2023-03-29T07:54:01;101328.38;;;15.70;54.16
31121;BME280;17770;45.966;13.632;2023-03-29T07:57:05;101326.66;;;15.68;54.33
31121;BME280;17770;45.966;13.632;2023-03-29T07:59:40;101318.00;;;15.68;54.16
31121;BME280;17770;45.966;13.632;2023-03-29T08:02:11;101324.91;;;15.69;54.18
31121;BME280;17770;45.966;13.632;2023-03-29T08:04:39;101314.50;;;15.69;54.09
31121;BME280;17770;45.966;13.632;2023-03-29T08:07:15;101317.09;;;15.69;54.33
31121;BME280;17770;45.966;13.632;2023-03-29T08:09:52;101317.97;;;15.70;54.27
31121;BME280;17770;45.966;13.632;2023-03-29T08:12:22;101311.91;;;15.69;54.20
31121;BME280;17770;45.966;13.632;2023-03-29T08:14:48;101307.63;;;15.68;54.43
31121;BME280;17770;45.966;13.632;2023-03-29T08:17:21;101307.63;;;15.68;54.17
31121;BME280;17770;45.966;13.632;2023-03-29T08:19:49;101311.03;;;15.68;54.54
31121;BME280;17770;45.966;13.632;2023-03-29T08:22:18;101306.69;;;15.69;54.51
31121;BME280;17770;45.966;13.632;2023-03-29T08:25:14;101293.69;;;15.69;54.05
31121;BME280;17770;45.966;13.632;2023-03-29T08:27:44;101304.97;;;15.70;54.53
31121;BME280;17770;45.966;13.632;2023-03-29T08:30:13;101310.97;;;15.70;54.44
31121;BME280;17770;45.966;13.632;2023-03-29T08:32:40;101317.00;;;15.72;54.18
31121;BME280;17770;45.966;13.632;2023-03-29T08:35:07;101314.38;;;15.72;54.82
31121;BME280;17770;45.966;13.632;2023-03-29T08:37:52;101311.72;;;15.74;54.70
31121;BME280;17770;45.966;13.632;2023-03-29T08:40:19;101315.25;;;15.73;54.26
31121;BME280;17770;45.966;13.632;2023-03-29T08:45:37;101304.78;;;15.74;54.29
31121;BME280;17770;45.966;13.632;2023-03-29T08:50:45;101307.34;;;15.76;54.51
31121;BME280;17770;45.966;13.632;2023-03-29T08:53:58;101300.38;;;15.76;54.28
31121;BME280;17770;45.966;13.632;2023-03-29T08:56:13;101308.13;;;15.78;54.21
31121;BME280;17770;45.966;13.632;2023-03-29T08:58:58;101298.53;;;15.80;54.79
31121;BME280;17770;45.966;13.632;2023-03-29T09:01:32;101302.88;;;15.79;54.68
31121;BME280;17770;45.966;13.632;2023-03-29T09:06:45;101290.72;;;15.80;54.65
31121;BME280;17770;45.966;13.632;2023-03-29T09:09:17;101281.16;;;15.80;54.38
31121;BME280;17770;45.966;13.632;2023-03-29T09:28:13;101283.72;;;15.82;55.25
31121;BME280;17770;45.966;13.632;2023-03-29T09:33:28;101283.66;;;15.83;54.89
31121;BME280;17770;45.966;13.632;2023-03-29T09:36:16;101285.41;;;15.83;54.92
31121;BME280;17770;45.966;13.632;2023-03-29T09:38:45;101281.88;;;15.84;55.16
31121;BME280;17770;45.966;13.632;2023-03-29T09:43:39;101274.03;;;15.85;55.49
31121;BME280;17770;45.966;13.632;2023-03-29T09:46:13;101266.22;;;15.85;55.38
31121;BME280;17770;45.966;13.632;2023-03-29T09:48:44;101275.75;;;15.86;55.51
31121;BME280;17770;45.966;13.632;2023-03-29T09:51:11;101268.75;;;15.88;55.01
31121;BME280;17770;45.966;13.632;2023-03-29T09:53:38;101265.22;;;15.89;55.11
31121;BME280;17770;45.966;13.632;2023-03-29T09:56:27;101268.69;;;15.90;55.03
31121;BME280;17770;45.966;13.632;2023-03-29T09:59:03;101275.56;;;15.91;55.64
31121;BME280;17770;45.966;13.632;2023-03-29T10:01:35;101270.31;;;15.92;55.53
31121;BME280;17770;45.966;13.632;2023-03-29T10:04:04;101266.81;;;15.93;55.29
31121;BME280;17770;45.966;13.632;2023-03-29T10:06:31;101271.97;;;15.95;55.57
31121;BME280;17770;45.966;13.632;2023-03-29T10:09:00;101267.59;;;15.95;55.95
31121;BME280;17770;45.966;13.632;2023-03-29T10:11:38;101266.69;;;15.96;55.79
31121;BME280;17770;45.966;13.632;2023-03-29T10:14:10;101260.63;;;15.96;56.16
31121;BME280;17770;45.966;13.632;2023-03-29T10:16:38;101261.44;;;15.98;56.19
31121;BME280;17770;45.966;13.632;2023-03-29T10:21:39;101252.66;;;16.00;56.15
31121;BME280;17770;45.966;13.632;2023-03-29T10:24:07;101258.72;;;16.01;56.16
31121;BME280;17770;45.966;13.632;2023-03-29T10:26:33;101249.16;;;16.01;56.20
31121;BME280;17770;45.966;13.632;2023-03-29T10:29:04;101248.25;;;16.02;56.17
31121;BME280;17770;45.966;13.632;2023-03-29T10:31:31;101256.84;;;16.04;56.37
31121;BME280;17770;45.966;13.632;2023-03-29T10:34:01;101246.38;;;16.06;56.40
31121;BME280;17770;45.966;13.632;2023-03-29T10:36:28;101249.00;;;16.06;55.82
31121;BME280;17770;45.966;13.632;2023-03-29T10:38:58;101250.66;;;16.07;55.78
31121;BME280;17770;45.966;13.632;2023-03-29T10:41:25;101247.06;;;16.11;56.31
31121;BME280;17770;45.966;13.632;2023-03-29T10:43:54;101254.81;;;16.12;56.12
31121;BME280;17770;45.966;13.632;2023-03-29T10:46:28;101241.72;;;16.14;56.39
31121;BME280;17770;45.966;13.632;2023-03-29T10:48:57;101240.81;;;16.15;55.96
31121;BME280;17770;45.966;13.632;2023-03-29T10:51:24;101239.00;;;16.17;56.53
31121;BME280;17770;45.966;13.632;2023-03-29T10:53:52;101243.31;;;16.18;56.34
31121;BME280;17770;45.966;13.632;2023-03-29T10:59:24;101238.84;;;16.21;56.75
31121;BME280;17770;45.966;13.632;2023-03-29T11:04:24;101237.81;;;16.25;56.35
31121;BME280;17770;45.966;13.632;2023-03-29T11:07:17;101232.53;;;16.27;56.82
31121;BME280;17770;45.966;13.632;2023-03-29T11:14:58;101228.94;;;16.31;56.88
31121;BME280;17770;45.966;13.632;2023-03-29T11:17:35;101225.34;;;16.33;57.00
31121;BME280;17770;45.966;13.632;2023-03-29T11:27:37;101223.41;;;16.38;57.90
31121;BME280;17770;45.966;13.632;2023-03-29T11:43:33;101191.72;;;16.50;58.35
31121;BME280;17770;45.966;13.632;2023-03-29T11:48:33;101195.88;;;16.54;57.98
31121;BME280;17770;45.966;13.632;2023-03-29T11:51:09;101198.38;;;16.57;58.03
31121;BME280;17770;45.966;13.632;2023-03-29T11:53:40;101193.09;;;16.59;59.17
31121;BME280;17770;45.966;13.632;2023-03-29T11:56:12;101196.50;;;16.61;58.56
31121;BME280;17770;45.966;13.632;2023-03-29T11:58:40;101197.25;;;16.63;59.44
31121;BME280;17770;45.966;13.632;2023-03-29T12:01:09;101187.63;;;16.65;58.76
31121;BME280;17770;45.966;13.632;2023-03-29T12:04:13;101197.09;;;16.67;59.15
31121;BME280;17770;45.966;13.632;2023-03-29T12:14:25;101179.25;;;16.78;60.07
31121;BME280;17770;45.966;13.632;2023-03-29T12:16:57;101185.25;;;16.80;59.56
31121;BME280;17770;45.966;13.632;2023-03-29T12:19:42;101184.28;;;16.83;60.48
31121;BME280;17770;45.966;13.632;2023-03-29T12:22:11;101179.84;;;16.85;60.44
31121;BME280;17770;45.966;13.632;2023-03-29T12:24:41;101183.25;;;16.87;60.25
31121;BME280;17770;45.966;13.632;2023-03-29T12:35:18;101168.84;;;16.99;60.79
31121;BME280;17770;45.966;13.632;2023-03-29T12:41:17;101175.53;;;17.04;61.48
31121;BME280;17770;45.966;13.632;2023-03-29T12:44:02;101175.47;;;17.06;60.67
31121;BME280;17770;45.966;13.632;2023-03-29T12:46:40;101172.75;;;17.09;61.18
31121;BME280;17770;45.966;13.632;2023-03-29T12:49:09;101165.66;;;17.12;61.14
31121;BME280;17770;45.966;13.632;2023-03-29T12:51:35;101168.19;;;17.14;60.11
31121;BME280;17770;45.966;13.632;2023-03-29T13:01:36;101166.09;;;17.22;61.02
31121;BME280;17770;45.966;13.632;2023-03-29T13:04:18;101168.56;;;17.25;60.98
31121;BME280;17770;45.966;13.632;2023-03-29T13:09:26;101168.34;;;17.29;60.23
31121;BME280;17770;45.966;13.632;2023-03-29T13:14:20;101165.59;;;17.32;59.28
31121;BME280;17770;45.966;13.632;2023-03-29T13:16:48;101176.81;;;17.34;60.94
31121;BME280;17770;45.966;13.632;2023-03-29T13:19:21;101184.56;;;17.36;58.72
31121;BME280;17770;45.966;13.632;2023-03-29T13:24:39;101177.53;;;17.38;58.25
31121;BME280;17770;45.966;13.632;2023-03-29T13:32:25;101164.22;;;17.44;58.24
31121;BME280;17770;45.966;13.632;2023-03-29T13:34:59;101160.66;;;17.46;57.81
31121;BME280;17770;45.966;13.632;2023-03-29T13:43:17;101163.84;;;17.53;57.71
31121;BME280;17770;45.966;13.632;2023-03-29T13:45:39;101164.69;;;17.53;57.27
31121;BME280;17770;45.966;13.632;2023-03-29T13:50:51;101170.56;;;17.58;57.40
31121;BME280;17770;45.966;13.632;2023-03-29T13:55:49;101159.13;;;17.61;56.94
31121;BME280;17770;45.966;13.632;2023-03-29T13:58:25;101155.53;;;17.63;56.43
31121;BME280;17770;45.966;13.632;2023-03-29T14:00:58;101159.84;;;17.64;56.56
31121;BME280;17770;45.966;13.632;2023-03-29T14:03:25;101169.25;;;17.67;57.23
31121;BME280;17770;45.966;13.632;2023-03-29T14:05:58;101167.44;;;17.69;56.99
31121;BME280;17770;45.966;13.632;2023-03-29T14:08:26;101169.81;;;17.73;56.99
31121;BME280;17770;45.966;13.632;2023-03-29T14:10:53;101157.63;;;17.74;56.39
31121;BME280;17770;45.966;13.632;2023-03-29T14:13:20;101169.72;;;17.76;56.28
31121;BME280;17770;45.966;13.632;2023-03-29T14:15:48;101166.09;;;17.79;57.15
31121;BME280;17770;45.966;13.632;2023-03-29T14:18:16;101165.22;;;17.80;56.89
31121;BME280;17770;45.966;13.632;2023-03-29T14:20:47;101171.09;;;17.83;57.29
31121;BME280;17770;45.966;13.632;2023-03-29T14:23:24;101171.00;;;17.86;57.34
31121;BME280;17770;45.966;13.632;2023-03-29T14:25:51;101166.50;;;17.88;57.00
31121;BME280;17770;45.966;13.632;2023-03-29T14:28:18;101154.31;;;17.89;57.09
31121;BME280;17770;45.966;13.632;2023-03-29T14:30:44;101162.00;;;17.92;56.83
31121;BME280;17770;45.966;13.632;2023-03-29T14:33:13;101152.34;;;17.94;57.35
31121;BME280;17770;45.966;13.632;2023-03-29T14:35:38;101157.41;;;17.97;56.78
31121;BME280;17770;45.966;13.632;2023-03-29T14:38:05;101161.81;;;17.96;56.73
31121;BME280;17770;45.966;13.632;2023-03-29T14:40:31;101154.66;;;18.00;57.40
31121;BME280;17770;45.966;13.632;2023-03-29T14:42:58;101143.31;;;18.01;56.70
31121;BME280;17770;45.966;13.632;2023-03-29T14:45:25;101155.34;;;18.03;56.61
31121;BME280;17770;45.966;13.632;2023-03-29T14:47:51;101141.34;;;18.06;56.86
31121;BME280;17770;45.966;13.632;2023-03-29T14:50:18;101145.63;;;18.07;56.42
31121;BME280;17770;45.966;13.632;2023-03-29T14:52:45;101144.66;;;18.09;57.31
31121;BME280;17770;45.966;13.632;2023-03-29T14:55:13;101151.47;;;18.12;57.34
31121;BME280;17770;45.966;13.632;2023-03-29T14:57:40;101157.47;;;18.14;56.11
31121;BME280;17770;45.966;13.632;2023-03-29T15:00:17;101144.41;;;18.14;56.69
31121;BME280;17770;45.966;13.632;2023-03-29T15:02:56;101146.09;;;18.15;56.26
31121;BME280;17770;45.966;13.632;2023-03-29T15:07:48;101136.34;;;18.18;56.02
31121;BME280;17770;45.966;13.632;2023-03-29T15:10:15;101126.84;;;18.17;55.87
31121;BME280;17770;45.966;13.632;2023-03-29T15:12:42;101130.22;;;18.19;56.82
31121;BME280;17770;45.966;13.632;2023-03-29T15:15:09;101126.78;;;18.19;56.39